Time,TemperatureF,DewpointF,PressureIn,WindDirection,WindDirectionDegrees,WindSpeedMPH,WindSpeedGustMPH,Humidity,HourlyPrecipIn,Conditions,Clouds,dailyrainin,SoftwareType,DateUTC
2013-08-19 00:01:00,67.7,62.0,30.01,East,90,0.0,0.0,82,0.00,,,0.00,WUHU216HW,2013-08-19 05:01:00,
2013-08-19 00:06:00,67.5,61.8,30.01,East,90,0.0,0.0,82,0.00,,,0.00,WUHU216HW,2013-08-19 05:06:00,
2013-08-19 00:11:00,67.3,62.0,30.01,East,90,0.0,0.0,83,0.00,,,0.00,WUHU216HW,2013-08-19 05:11:00,
2013-08-19 00:16:00,67.1,61.8,30.01,East,90,0.0,0.0,83,0.00,,,0.00,WUHU216HW,2013-08-19 05:16:00,
2013-08-19 00:21:00,67.0,61.7,30.01,East,90,0.0,0.0,83,0.00,,,0.00,WUHU216HW,2013-08-19 05:21:00,
2013-08-19 00:26:00,67.0,61.9,30.01,East,90,0.0,0.0,84,0.00,,,0.00,WUHU216HW,2013-08-19 05:26:00,
2013-08-19 00:31:00,66.8,61.7,30.01,East,90,0.0,0.0,84,0.00,,,0.00,WUHU216HW,2013-08-19 05:31:00,
2013-08-19 00:36:00,66.6,61.6,30.01,East,90,0.0,0.0,84,0.00,,,0.00,WUHU216HW,2013-08-19 05:36:00,
2013-08-19 00:41:00,66.6,61.6,30.01,ESE,113,0.3,0.4,84,0.00,,,0.00,WUHU216HW,2013-08-19 05:41:00,
2013-08-19 00:46:00,66.6,61.6,30.01,ESE,113,0.0,0.4,84,0.00,,,0.00,WUHU216HW,2013-08-19 05:46:00,
2013-08-19 00:51:00,66.6,61.6,30.01,ESE,113,0.0,0.4,84,0.00,,,0.00,WUHU216HW,2013-08-19 05:51:00,
2013-08-19 00:56:00,66.6,61.6,30.01,ESE,113,0.0,0.0,84,0.00,,,0.00,WUHU216HW,2013-08-19 05:56:00,
2013-08-19 01:01:00,66.6,61.6,30.01,ESE,113,0.0,0.0,84,0.00,,,0.00,WUHU216HW,2013-08-19 06:01:00,
2013-08-19 01:06:00,66.6,61.6,30.01,ESE,113,0.0,0.0,84,0.00,,,0.00,WUHU216HW,2013-08-19 06:06:00,
2013-08-19 01:11:00,66.6,61.6,30.01,ESE,113,0.0,0.0,84,0.00,,,0.00,WUHU216HW,2013-08-19 06:11:00,
2013-08-19 01:16:00,66.6,61.9,30.01,ESE,113,0.0,0.0,85,0.00,,,0.00,WUHU216HW,2013-08-19 06:16:00,
2013-08-19 01:21:00,66.4,61.7,30.01,ESE,113,0.0,0.0,85,0.00,,,0.00,WUHU216HW,2013-08-19 06:21:00,
2013-08-19 01:26:00,66.4,61.7,30.01,ESE,113,0.0,0.0,85,0.00,,,0.00,WUHU216HW,2013-08-19 06:26:00,
2013-08-19 01:31:00,66.2,61.6,30.01,ESE,113,0.0,0.0,85,0.00,,,0.00,WUHU216HW,2013-08-19 06:31:00,
2013-08-19 01:36:00,66.2,61.6,30.01,ESE,113,0.0,0.0,85,0.00,,,0.00,WUHU216HW,2013-08-19 06:36:00,
2013-08-19 01:40:00,66.1,61.4,30.01,ESE,113,0.0,0.0,85,0.00,,,0.00,WUHU216HW,2013-08-19 06:40:00,
2013-08-19 01:45:00,65.9,61.2,30.01,ESE,113,0.0,0.0,85,0.00,,,0.00,WUHU216HW,2013-08-19 06:45:00,
2013-08-19 01:50:00,65.9,61.2,30.01,ESE,113,0.0,0.0,85,0.00,,,0.00,WUHU216HW,2013-08-19 06:50:00,
2013-08-19 01:55:00,65.7,61.0,30.01,ESE,113,0.0,0.0,85,0.00,,,0.00,WUHU216HW,2013-08-19 06:55:00,
2013-08-19 02:00:00,65.5,60.8,30.01,ESE,113,0.0,0.0,85,0.00,,,0.00,WUHU216HW,2013-08-19 07:00:00,
2013-08-19 02:05:00,65.3,60.8,30.00,ESE,113,0.0,0.0,85,0.00,,,0.00,WUHU216HW,2013-08-19 07:05:00,
2013-08-19 02:10:00,65.2,60.6,30.01,ESE,113,0.0,0.0,85,0.00,,,0.00,WUHU216HW,2013-08-19 07:10:00,
2013-08-19 02:15:00,65.0,60.7,30.00,ESE,113,0.0,0.0,86,0.00,,,0.00,WUHU216HW,2013-08-19 07:15:00,
2013-08-19 02:20:00,64.8,60.2,30.00,ESE,113,0.0,0.0,85,0.00,,,0.00,WUHU216HW,2013-08-19 07:20:00,
2013-08-19 02:25:00,64.6,60.0,30.01,ESE,113,0.0,0.0,85,0.00,,,0.00,WUHU216HW,2013-08-19 07:25:00,
2013-08-19 02:30:00,64.6,60.0,30.00,ESE,113,0.0,0.0,85,0.00,,,0.00,WUHU216HW,2013-08-19 07:30:00,
2013-08-19 02:35:00,64.6,60.0,30.00,ESE,113,0.0,0.0,85,0.00,,,0.00,WUHU216HW,2013-08-19 07:35:00,
2013-08-19 02:40:00,64.4,60.2,30.00,ESE,113,0.0,0.0,86,0.00,,,0.00,WUHU216HW,2013-08-19 07:40:00,
2013-08-19 02:45:00,64.4,60.2,30.00,ESE,113,0.0,0.0,86,0.00,,,0.00,WUHU216HW,2013-08-19 07:45:00,
2013-08-19 02:50:00,64.4,60.2,30.00,ESE,113,0.0,0.0,86,0.00,,,0.00,WUHU216HW,2013-08-19 07:50:00,
2013-08-19 02:55:00,64.3,60.0,30.00,ESE,113,0.0,0.0,86,0.00,,,0.00,WUHU216HW,2013-08-19 07:55:00,
2013-08-19 03:00:00,64.3,60.0,30.00,ESE,113,0.0,0.0,86,0.00,,,0.00,WUHU216HW,2013-08-19 08:00:00,
2013-08-19 03:05:00,64.3,60.0,30.00,ESE,113,0.0,0.0,86,0.00,,,0.00,WUHU216HW,2013-08-19 08:05:00,
2013-08-19 03:10:00,64.3,60.0,30.00,ESE,113,0.0,0.0,86,0.00,,,0.00,WUHU216HW,2013-08-19 08:10:00,
2013-08-19 03:15:00,64.1,60.2,30.00,ESE,113,0.0,0.0,87,0.00,,,0.00,WUHU216HW,2013-08-19 08:15:00,
2013-08-19 03:20:00,64.1,60.2,30.00,ESE,113,0.0,0.0,87,0.00,,,0.00,WUHU216HW,2013-08-19 08:20:00,
2013-08-19 03:25:00,64.3,60.4,30.00,ESE,113,0.0,0.0,87,0.00,,,0.00,WUHU216HW,2013-08-19 08:25:00,
2013-08-19 03:30:00,64.3,60.4,30.00,ESE,113,0.0,0.0,87,0.00,,,0.00,WUHU216HW,2013-08-19 08:30:00,
2013-08-19 03:35:00,64.3,60.4,30.00,ESE,113,0.0,0.0,87,0.00,,,0.00,WUHU216HW,2013-08-19 08:35:00,
2013-08-19 03:40:00,64.3,60.4,30.00,ESE,113,0.0,0.0,87,0.00,,,0.00,WUHU216HW,2013-08-19 08:40:00,
2013-08-19 03:45:00,64.3,60.4,30.00,ESE,113,0.0,0.0,87,0.00,,,0.00,WUHU216HW,2013-08-19 08:45:00,
2013-08-19 03:50:00,64.1,60.2,30.00,ESE,113,0.0,0.0,87,0.00,,,0.00,WUHU216HW,2013-08-19 08:50:00,
2013-08-19 03:55:00,64.1,60.2,30.00,ESE,113,0.0,0.0,87,0.00,,,0.00,WUHU216HW,2013-08-19 08:55:00,
2013-08-19 04:00:00,64.1,60.2,30.00,ESE,113,0.0,0.0,87,0.00,,,0.00,WUHU216HW,2013-08-19 09:00:00,
2013-08-19 04:05:00,64.1,60.2,29.99,ESE,113,0.0,0.0,87,0.00,,,0.00,WUHU216HW,2013-08-19 09:05:00,
2013-08-19 04:10:00,63.9,60.0,29.99,ESE,113,0.0,0.0,87,0.00,,,0.00,WUHU216HW,2013-08-19 09:10:00,
2013-08-19 04:15:00,63.9,60.0,29.99,ESE,113,0.0,0.0,87,0.00,,,0.00,WUHU216HW,2013-08-19 09:15:00,
2013-08-19 04:20:00,63.9,60.3,29.99,ESE,113,0.0,0.0,88,0.00,,,0.00,WUHU216HW,2013-08-19 09:20:00,
2013-08-19 04:25:00,63.7,60.1,29.99,ESE,113,0.0,0.0,88,0.00,,,0.00,WUHU216HW,2013-08-19 09:25:00,
2013-08-19 04:30:00,63.7,60.1,29.99,ESE,113,0.0,0.0,88,0.00,,,0.00,WUHU216HW,2013-08-19 09:30:00,
2013-08-19 04:35:00,63.7,60.1,29.99,ESE,113,0.0,0.0,88,0.00,,,0.00,WUHU216HW,2013-08-19 09:35:00,
2013-08-19 04:40:00,63.7,60.1,29.99,ESE,113,0.0,0.0,88,0.00,,,0.00,WUHU216HW,2013-08-19 09:40:00,
2013-08-19 04:45:00,63.9,60.3,29.99,ESE,113,0.0,0.0,88,0.00,,,0.00,WUHU216HW,2013-08-19 09:45:00,
2013-08-19 04:50:00,63.7,60.1,29.99,ESE,113,0.0,0.0,88,0.00,,,0.00,WUHU216HW,2013-08-19 09:50:00,
2013-08-19 04:55:00,63.7,60.1,29.99,ESE,113,0.0,0.0,88,0.00,,,0.00,WUHU216HW,2013-08-19 09:55:00,
2013-08-19 05:00:00,63.7,60.1,29.99,ESE,113,0.0,0.0,88,0.00,,,0.00,WUHU216HW,2013-08-19 10:00:00,
2013-08-19 05:05:00,63.7,60.1,29.99,ESE,113,0.0,0.0,88,0.00,,,0.00,WUHU216HW,2013-08-19 10:05:00,
2013-08-19 05:10:00,63.7,60.1,29.99,ESE,113,0.0,0.0,88,0.00,,,0.00,WUHU216HW,2013-08-19 10:10:00,
2013-08-19 05:15:00,63.7,60.1,29.99,ESE,113,0.0,0.0,88,0.00,,,0.00,WUHU216HW,2013-08-19 10:15:00,
2013-08-19 05:20:00,63.5,59.9,29.99,ESE,113,0.0,0.0,88,0.00,,,0.00,WUHU216HW,2013-08-19 10:20:00,
2013-08-19 05:25:00,63.5,59.9,29.99,ESE,113,0.0,0.0,88,0.00,,,0.00,WUHU216HW,2013-08-19 10:25:00,
2013-08-19 05:30:00,63.4,59.8,29.99,ESE,113,0.0,0.0,88,0.00,,,0.00,WUHU216HW,2013-08-19 10:30:00,
2013-08-19 05:35:00,63.4,60.1,29.99,ESE,113,0.0,0.0,89,0.00,,,0.00,WUHU216HW,2013-08-19 10:35:00,
2013-08-19 05:40:00,63.4,60.1,29.99,ESE,113,0.0,0.0,89,0.00,,,0.00,WUHU216HW,2013-08-19 10:40:00,
2013-08-19 05:45:00,63.2,59.9,29.99,ESE,113,0.0,0.0,89,0.00,,,0.00,WUHU216HW,2013-08-19 10:45:00,
2013-08-19 05:50:00,63.2,59.9,29.99,ESE,113,0.0,0.0,89,0.00,,,0.00,WUHU216HW,2013-08-19 10:50:00,
2013-08-19 05:55:00,63.2,59.9,30.00,ESE,113,0.0,0.0,89,0.00,,,0.00,WUHU216HW,2013-08-19 10:55:00,
2013-08-19 06:00:00,63.0,59.8,29.99,ESE,113,0.0,0.0,89,0.00,,,0.00,WUHU216HW,2013-08-19 11:00:00,
2013-08-19 06:05:00,63.0,59.8,29.99,ESE,113,0.0,0.0,89,0.00,,,0.00,WUHU216HW,2013-08-19 11:05:00,
2013-08-19 06:10:00,63.0,59.8,29.99,ESE,113,0.0,0.0,89,0.00,,,0.00,WUHU216HW,2013-08-19 11:10:00,
2013-08-19 06:15:00,63.0,59.8,29.99,ESE,113,0.0,0.0,89,0.00,,,0.00,WUHU216HW,2013-08-19 11:15:00,
2013-08-19 06:20:00,63.0,59.8,30.00,ESE,113,0.0,0.0,89,0.00,,,0.00,WUHU216HW,2013-08-19 11:20:00,
2013-08-19 06:25:00,63.0,59.8,30.00,ESE,113,0.0,0.0,89,0.00,,,0.00,WUHU216HW,2013-08-19 11:25:00,
2013-08-19 06:30:00,63.0,59.8,30.00,ESE,113,0.0,0.0,89,0.00,,,0.00,WUHU216HW,2013-08-19 11:30:00,
2013-08-19 06:35:00,63.0,59.8,30.00,ESE,113,0.0,0.0,89,0.00,,,0.00,WUHU216HW,2013-08-19 11:35:00,
2013-08-19 06:40:00,63.0,59.8,30.00,ESE,113,0.0,0.0,89,0.00,,,0.00,WUHU216HW,2013-08-19 11:40:00,
2013-08-19 06:45:00,63.0,59.8,30.00,ESE,113,0.0,0.0,89,0.00,,,0.00,WUHU216HW,2013-08-19 11:45:00,
2013-08-19 06:50:00,63.0,59.8,30.01,ESE,113,0.0,0.0,89,0.00,,,0.00,WUHU216HW,2013-08-19 11:50:00,
2013-08-19 06:55:00,63.0,59.8,30.01,ESE,113,0.0,0.0,89,0.00,,,0.00,WUHU216HW,2013-08-19 11:55:00,
2013-08-19 07:00:00,63.0,59.8,30.00,ESE,113,0.0,0.0,89,0.00,,,0.00,WUHU216HW,2013-08-19 12:00:00,
2013-08-19 07:05:00,63.0,59.8,30.00,ESE,113,0.0,0.0,89,0.00,,,0.00,WUHU216HW,2013-08-19 12:05:00,
2013-08-19 07:10:00,62.8,59.6,30.01,ENE,68,0.0,0.0,89,0.00,,,0.00,WUHU216HW,2013-08-19 12:10:00,
2013-08-19 07:15:00,62.6,59.4,30.01,ENE,68,0.0,0.0,89,0.00,,,0.00,WUHU216HW,2013-08-19 12:15:00,
2013-08-19 07:20:00,62.6,59.4,30.01,ENE,68,0.0,0.0,89,0.00,,,0.00,WUHU216HW,2013-08-19 12:20:00,
2013-08-19 07:25:00,62.5,59.2,30.01,ENE,68,0.0,0.0,89,0.00,,,0.00,WUHU216HW,2013-08-19 12:25:00,
2013-08-19 07:30:00,62.5,59.2,30.01,ENE,68,0.0,0.0,89,0.00,,,0.00,WUHU216HW,2013-08-19 12:30:00,
2013-08-19 07:35:00,62.8,59.9,30.01,ENE,68,0.0,0.0,90,0.00,,,0.00,WUHU216HW,2013-08-19 12:35:00,
2013-08-19 07:40:00,63.4,60.5,30.01,East,90,0.0,0.0,90,0.00,,,0.00,WUHU216HW,2013-08-19 12:40:00,
2013-08-19 07:45:00,63.7,60.8,30.01,ESE,113,0.0,0.0,90,0.00,,,0.00,WUHU216HW,2013-08-19 12:45:00,
2013-08-19 07:50:00,64.1,61.2,30.01,ESE,113,0.0,0.0,90,0.00,,,0.00,WUHU216HW,2013-08-19 12:50:00,
2013-08-19 07:55:00,64.4,61.6,30.01,ESE,113,0.0,0.0,90,0.00,,,0.00,WUHU216HW,2013-08-19 12:55:00,
2013-08-19 08:00:00,65.0,62.0,30.01,East,90,0.0,0.0,90,0.00,,,0.00,WUHU216HW,2013-08-19 13:00:00,
2013-08-19 08:05:00,65.5,62.6,30.01,ESE,113,0.0,0.0,90,0.00,,,0.00,WUHU216HW,2013-08-19 13:05:00,
2013-08-19 08:10:00,66.2,63.5,30.01,ESE,113,0.0,0.0,91,0.00,,,0.00,WUHU216HW,2013-08-19 13:10:00,
2013-08-19 08:15:00,66.6,63.8,30.02,ESE,113,0.0,0.0,91,0.00,,,0.00,WUHU216HW,2013-08-19 13:15:00,
2013-08-19 08:20:00,67.3,64.5,30.01,SSE,158,0.0,0.0,91,0.00,,,0.00,WUHU216HW,2013-08-19 13:20:00,
2013-08-19 08:25:00,67.9,65.1,30.02,South,180,0.0,0.0,91,0.00,,,0.00,WUHU216HW,2013-08-19 13:25:00,
2013-08-19 08:30:00,68.4,65.3,30.02,East,90,2.0,2.0,90,0.00,,,0.00,WUHU216HW,2013-08-19 13:30:00,
2013-08-19 08:35:00,68.8,65.3,30.03,East,90,0.4,2.0,89,0.00,,,0.00,WUHU216HW,2013-08-19 13:35:00,
2013-08-19 08:40:00,69.1,65.7,30.02,East,90,0.0,1.6,89,0.00,,,0.00,WUHU216HW,2013-08-19 13:40:00,
2013-08-19 08:45:00,69.5,65.7,30.02,ESE,113,0.7,1.1,88,0.00,,,0.00,WUHU216HW,2013-08-19 13:45:00,
2013-08-19 08:50:00,70.0,66.2,30.03,ESE,113,0.0,1.6,88,0.00,,,0.00,WUHU216HW,2013-08-19 13:50:00,
2013-08-19 08:55:00,70.6,66.8,30.03,ESE,113,0.2,1.6,88,0.00,,,0.00,WUHU216HW,2013-08-19 13:55:00,
2013-08-19 09:00:00,71.1,67.1,30.03,ESE,113,1.3,1.3,87,0.00,,,0.00,WUHU216HW,2013-08-19 14:00:00,
2013-08-19 09:05:00,71.6,67.2,30.03,East,90,0.6,1.3,86,0.00,,,0.00,WUHU216HW,2013-08-19 14:05:00,
2013-08-19 09:10:00,72.2,67.4,30.03,East,90,0.6,1.8,85,0.00,,,0.00,WUHU216HW,2013-08-19 14:10:00,
2013-08-19 09:15:00,72.9,68.1,30.03,ESE,113,0.8,1.8,85,0.00,,,0.00,WUHU216HW,2013-08-19 14:15:00,
2013-08-19 09:20:00,73.4,68.7,30.03,ESE,106,0.6,1.1,85,0.00,,,0.00,WUHU216HW,2013-08-19 14:20:00,
2013-08-19 09:25:00,73.8,69.0,30.03,East,90,0.4,2.7,85,0.00,,,0.00,WUHU216HW,2013-08-19 14:25:00,
2013-08-19 09:30:00,74.3,69.2,30.03,ESE,113,0.4,2.7,84,0.00,,,0.00,WUHU216HW,2013-08-19 14:30:00,
2013-08-19 09:35:00,74.7,69.2,30.03,East,90,2.7,2.7,83,0.00,,,0.00,WUHU216HW,2013-08-19 14:35:00,
2013-08-19 09:40:00,75.1,69.6,30.03,South,180,1.3,2.7,83,0.00,,,0.00,WUHU216HW,2013-08-19 14:40:00,
2013-08-19 09:45:00,75.4,69.3,30.03,SSW,203,3.0,4.0,81,0.00,,,0.00,WUHU216HW,2013-08-19 14:45:00,
2013-08-19 09:50:00,75.6,69.8,30.03,ESE,113,0.4,4.0,82,0.00,,,0.00,WUHU216HW,2013-08-19 14:50:00,
2013-08-19 09:55:00,76.1,69.9,30.03,South,186,0.8,1.1,81,0.00,,,0.00,WUHU216HW,2013-08-19 14:55:00,
2013-08-19 10:00:00,76.5,69.9,30.03,SSW,212,0.9,3.4,80,0.00,,,0.00,WUHU216HW,2013-08-19 15:00:00,
2013-08-19 10:05:00,77.0,70.0,30.03,NE,45,2.0,3.4,79,0.00,,,0.00,WUHU216HW,2013-08-19 15:05:00,
2013-08-19 10:10:00,77.4,70.4,30.03,SE,135,1.1,2.0,79,0.00,,,0.00,WUHU216HW,2013-08-19 15:10:00,
2013-08-19 10:15:00,77.9,69.8,30.03,SW,225,3.4,3.4,76,0.00,,,0.00,WUHU216HW,2013-08-19 15:15:00,
2013-08-19 10:20:00,78.1,70.3,30.03,NW,315,1.1,3.4,77,0.00,,,0.00,WUHU216HW,2013-08-19 15:20:00,
2013-08-19 10:25:00,78.1,69.5,30.03,ESE,113,1.8,3.4,75,0.00,,,0.00,WUHU216HW,2013-08-19 15:25:00,
2013-08-19 10:30:00,78.3,69.7,30.03,SSW,203,1.1,3.4,75,0.00,,,0.00,WUHU216HW,2013-08-19 15:30:00,
2013-08-19 10:35:00,78.5,70.3,30.03,SW,221,1.0,2.2,76,0.00,,,0.00,WUHU216HW,2013-08-19 15:35:00,
2013-08-19 10:40:00,78.8,70.2,30.03,SW,225,2.5,2.5,75,0.00,,,0.00,WUHU216HW,2013-08-19 15:40:00,
2013-08-19 10:45:00,79.0,68.4,30.03,WSW,248,2.0,3.1,70,0.00,,,0.00,WUHU216HW,2013-08-19 15:45:00,
2013-08-19 10:49:00,79.0,70.0,30.03,East,90,1.8,3.1,74,0.00,,,0.00,WUHU216HW,2013-08-19 15:49:00,
2013-08-19 10:54:00,79.6,70.1,30.03,SSE,147,1.0,1.8,73,0.00,,,0.00,WUHU216HW,2013-08-19 15:54:00,
2013-08-19 10:59:00,79.4,68.8,30.03,SW,234,3.2,3.8,70,0.00,,,0.00,WUHU216HW,2013-08-19 15:59:00,
2013-08-19 11:04:00,79.2,67.2,30.03,WSW,248,4.3,4.3,67,0.00,,,0.00,WUHU216HW,2013-08-19 16:04:00,
2013-08-19 11:09:00,78.5,67.5,30.03,SW,225,3.4,4.5,69,0.00,,,0.00,WUHU216HW,2013-08-19 16:09:00,
2013-08-19 11:15:00,78.1,67.2,30.03,WSW,248,1.7,4.5,69,0.00,,,0.00,WUHU216HW,2013-08-19 16:15:00,
2013-08-19 11:20:00,78.1,67.6,30.03,SW,225,3.1,3.6,70,0.00,,,0.00,WUHU216HW,2013-08-19 16:20:00,
2013-08-19 11:25:00,78.1,68.0,30.03,SW,225,1.1,3.4,71,0.00,,,0.00,WUHU216HW,2013-08-19 16:25:00,
2013-08-19 11:30:00,78.3,67.8,30.03,SW,226,4.1,4.3,70,0.00,,,0.00,WUHU216HW,2013-08-19 16:30:00,
2013-08-19 11:35:00,78.5,68.3,30.03,WSW,248,1.8,4.3,71,0.00,,,0.00,WUHU216HW,2013-08-19 16:35:00,
2013-08-19 11:40:00,78.7,68.0,30.03,SW,225,3.5,4.3,70,0.00,,,0.00,WUHU216HW,2013-08-19 16:40:00,
2013-08-19 11:45:00,78.3,67.8,30.03,WSW,248,1.8,4.3,70,0.00,,,0.00,WUHU216HW,2013-08-19 16:45:00,
2013-08-19 11:50:00,78.1,67.6,30.03,WSW,248,3.1,3.1,70,0.00,,,0.00,WUHU216HW,2013-08-19 16:50:00,
2013-08-19 11:55:00,78.8,69.0,30.03,North,0,0.4,3.1,72,0.00,,,0.00,WUHU216HW,2013-08-19 16:55:00,
2013-08-19 12:00:00,79.7,69.5,30.02,East,99,0.8,2.7,71,0.00,,,0.00,WUHU216HW,2013-08-19 17:00:00,
2013-08-19 12:05:00,80.1,69.0,30.02,SSW,203,1.1,2.5,69,0.00,,,0.00,WUHU216HW,2013-08-19 17:05:00,
2013-08-19 12:10:00,80.8,69.8,30.02,SSW,203,2.9,2.9,69,0.00,,,0.00,WUHU216HW,2013-08-19 17:10:00,
2013-08-19 12:15:00,80.6,69.1,30.02,ESE,113,1.0,2.9,68,0.00,,,0.00,WUHU216HW,2013-08-19 17:15:00,
2013-08-19 12:20:00,80.3,69.2,30.02,East,93,0.9,1.3,69,0.00,,,0.00,WUHU216HW,2013-08-19 17:20:00,
2013-08-19 12:25:00,81.0,69.9,30.02,SE,132,0.7,1.8,69,0.00,,,0.00,WUHU216HW,2013-08-19 17:25:00,
2013-08-19 12:30:00,82.1,70.4,30.02,SW,221,1.1,1.8,68,0.00,,,0.00,WUHU216HW,2013-08-19 17:30:00,
2013-08-19 12:35:00,82.4,69.8,30.02,SW,225,1.8,2.5,66,0.00,,,0.00,WUHU216HW,2013-08-19 17:35:00,
2013-08-19 12:40:00,82.1,68.1,30.01,SW,225,5.4,5.4,63,0.00,,,0.00,WUHU216HW,2013-08-19 17:40:00,
2013-08-19 12:45:00,81.5,68.6,30.01,WSW,248,1.6,5.4,65,0.00,,,0.00,WUHU216HW,2013-08-19 17:45:00,
2013-08-19 12:50:00,81.4,69.3,30.01,ESE,113,1.1,2.9,67,0.00,,,0.00,WUHU216HW,2013-08-19 17:50:00,
2013-08-19 12:55:00,81.0,69.0,30.01,SW,225,1.0,1.8,67,0.00,,,0.00,WUHU216HW,2013-08-19 17:55:00,
2013-08-19 13:00:00,80.6,68.7,30.01,SSE,158,0.4,1.1,67,0.00,,,0.00,WUHU216HW,2013-08-19 18:00:00,
2013-08-19 13:05:00,80.8,69.3,30.01,SW,225,1.6,1.6,68,0.00,,,0.00,WUHU216HW,2013-08-19 18:05:00,
2013-08-19 13:10:00,81.7,70.1,30.01,NNE,26,1.5,2.5,68,0.00,,,0.00,WUHU216HW,2013-08-19 18:10:00,
2013-08-19 13:15:00,82.1,68.1,30.01,ESE,113,2.5,2.5,63,0.00,,,0.00,WUHU216HW,2013-08-19 18:15:00,
2013-08-19 13:20:00,81.7,68.8,30.01,WSW,248,1.3,2.5,65,0.00,,,0.00,WUHU216HW,2013-08-19 18:20:00,
2013-08-19 13:25:00,81.7,69.2,30.01,NW,326,0.6,3.1,66,0.00,,,0.00,WUHU216HW,2013-08-19 18:25:00,
2013-08-19 13:30:00,82.3,69.7,30.00,WSW,248,1.1,3.1,66,0.00,,,0.00,WUHU216HW,2013-08-19 18:30:00,
2013-08-19 13:35:00,82.4,67.1,30.00,WSW,248,2.7,3.4,60,0.00,,,0.00,WUHU216HW,2013-08-19 18:35:00,
2013-08-19 13:40:00,81.7,68.3,30.00,East,87,0.9,3.4,64,0.00,,,0.00,WUHU216HW,2013-08-19 18:40:00,
2013-08-19 13:45:00,81.7,68.8,30.00,SSE,158,0.4,1.3,65,0.00,,,0.00,WUHU216HW,2013-08-19 18:45:00,
2013-08-19 13:50:00,82.3,69.2,30.00,ESE,103,1.5,2.0,65,0.00,,,0.00,WUHU216HW,2013-08-19 18:50:00,
2013-08-19 13:55:00,82.6,69.1,30.00,South,180,3.1,3.1,64,0.00,,,0.00,WUHU216HW,2013-08-19 18:55:00,
2013-08-19 14:00:00,82.6,65.8,30.00,WSW,239,3.4,4.0,57,0.00,,,0.00,WUHU216HW,2013-08-19 19:00:00,
2013-08-19 14:05:00,82.4,66.1,30.00,WSW,248,3.1,4.0,58,0.00,,,0.00,WUHU216HW,2013-08-19 19:05:00,
2013-08-19 14:10:00,82.8,67.0,29.99,WSW,248,2.2,3.1,59,0.00,,,0.00,WUHU216HW,2013-08-19 19:10:00,
2013-08-19 14:15:00,82.4,66.1,29.99,West,273,2.0,5.4,58,0.00,,,0.00,WUHU216HW,2013-08-19 19:15:00,
2013-08-19 14:20:00,82.3,66.0,29.99,WSW,237,2.8,5.4,58,0.00,,,0.00,WUHU216HW,2013-08-19 19:20:00,
2013-08-19 14:25:00,82.1,66.8,29.99,WSW,248,0.9,4.0,60,0.00,,,0.00,WUHU216HW,2013-08-19 19:25:00,
2013-08-19 14:30:00,82.6,66.8,29.99,ESE,105,1.0,2.5,59,0.00,,,0.00,WUHU216HW,2013-08-19 19:30:00,
2013-08-19 14:35:00,83.0,66.6,29.98,NW,323,0.8,1.8,58,0.00,,,0.00,WUHU216HW,2013-08-19 19:35:00,
2013-08-19 14:40:00,82.8,66.4,29.98,SW,225,2.5,3.4,58,0.00,,,0.00,WUHU216HW,2013-08-19 19:40:00,
2013-08-19 14:45:00,83.0,66.6,29.98,WSW,248,2.7,3.4,58,0.00,,,0.00,WUHU216HW,2013-08-19 19:45:00,
2013-08-19 14:50:00,83.2,66.8,29.98,ESE,113,1.8,3.1,58,0.00,,,0.00,WUHU216HW,2013-08-19 19:50:00,
2013-08-19 14:55:00,83.5,67.1,29.98,North,0,1.8,3.1,58,0.00,,,0.00,WUHU216HW,2013-08-19 19:55:00,
2013-08-19 15:00:00,83.3,66.5,29.98,SW,221,0.6,2.5,57,0.00,,,0.00,WUHU216HW,2013-08-19 20:00:00,
2013-08-19 15:05:00,83.2,64.2,29.98,SW,225,3.6,3.6,53,0.00,,,0.00,WUHU216HW,2013-08-19 20:05:00,
2013-08-19 15:10:00,83.0,65.1,29.97,SW,222,0.9,3.6,55,0.00,,,0.00,WUHU216HW,2013-08-19 20:10:00,
2013-08-19 15:15:00,83.2,65.3,29.97,SSW,203,2.2,3.6,55,0.00,,,0.00,WUHU216HW,2013-08-19 20:15:00,
2013-08-19 15:20:00,83.3,65.4,29.97,SW,233,3.4,4.3,55,0.00,,,0.00,WUHU216HW,2013-08-19 20:20:00,
2013-08-19 15:25:00,83.5,66.7,29.97,SE,126,1.0,4.3,57,0.00,,,0.00,WUHU216HW,2013-08-19 20:25:00,
2013-08-19 15:30:00,83.5,65.6,29.97,SW,225,2.5,2.5,55,0.00,,,0.00,WUHU216HW,2013-08-19 20:30:00,
2013-08-19 15:35:00,83.7,66.9,29.97,West,263,0.9,2.5,57,0.00,,,0.00,WUHU216HW,2013-08-19 20:35:00,
2013-08-19 15:40:00,83.7,66.9,29.97,SSW,203,1.8,1.8,57,0.00,,,0.00,WUHU216HW,2013-08-19 20:40:00,
2013-08-19 15:45:00,83.9,65.4,29.96,WSW,248,4.0,4.3,54,0.00,,,0.00,WUHU216HW,2013-08-19 20:45:00,
2013-08-19 15:50:00,83.9,66.5,29.96,WSW,248,2.0,4.3,56,0.00,,,0.00,WUHU216HW,2013-08-19 20:50:00,
2013-08-19 15:55:00,83.9,66.0,29.96,SW,225,2.8,3.4,55,0.00,,,0.00,WUHU216HW,2013-08-19 20:55:00,
2013-08-19 16:00:00,83.5,65.6,29.96,WNW,293,0.9,3.4,55,0.00,,,0.00,WUHU216HW,2013-08-19 21:00:00,
2013-08-19 16:05:00,83.2,64.7,29.96,SW,225,1.6,3.4,54,0.00,,,0.00,WUHU216HW,2013-08-19 21:05:00,
2013-08-19 16:10:00,83.2,63.7,29.96,West,273,2.0,2.9,52,0.00,,,0.00,WUHU216HW,2013-08-19 21:10:00,
2013-08-19 16:15:00,83.0,65.6,29.96,WSW,248,1.3,2.5,56,0.00,,,0.00,WUHU216HW,2013-08-19 21:15:00,
2013-08-19 16:20:00,82.6,65.3,29.96,South,180,0.6,1.8,56,0.00,,,0.00,WUHU216HW,2013-08-19 21:20:00,
2013-08-19 16:25:00,82.4,65.6,29.96,SW,225,0.6,1.1,57,0.00,,,0.00,WUHU216HW,2013-08-19 21:25:00,
2013-08-19 16:30:00,82.3,65.4,29.96,East,90,0.7,1.8,57,0.00,,,0.00,WUHU216HW,2013-08-19 21:30:00,
2013-08-19 16:35:00,82.3,66.0,29.95,East,90,0.4,1.8,58,0.00,,,0.00,WUHU216HW,2013-08-19 21:35:00,
2013-08-19 16:40:00,82.3,65.4,29.96,WSW,248,2.5,2.5,57,0.00,,,0.00,WUHU216HW,2013-08-19 21:40:00,
2013-08-19 16:45:00,82.1,65.8,29.95,SW,225,1.5,2.7,58,0.00,,,0.00,WUHU216HW,2013-08-19 21:45:00,
2013-08-19 16:50:00,81.7,65.4,29.95,WSW,248,2.0,2.7,58,0.00,,,0.00,WUHU216HW,2013-08-19 21:50:00,
2013-08-19 16:55:00,81.7,66.0,29.95,WSW,248,1.8,2.7,59,0.00,,,0.00,WUHU216HW,2013-08-19 21:55:00,
2013-08-19 17:00:00,82.1,65.8,29.95,SW,225,2.5,2.7,58,0.00,,,0.00,WUHU216HW,2013-08-19 22:00:00,
2013-08-19 17:05:00,82.6,66.2,29.95,West,275,0.9,3.4,58,0.00,,,0.00,WUHU216HW,2013-08-19 22:05:00,
2013-08-19 17:10:00,83.0,65.6,29.95,SW,225,1.8,3.4,56,0.00,,,0.00,WUHU216HW,2013-08-19 22:10:00,
2013-08-19 17:15:00,83.0,66.2,29.94,WSW,248,2.7,2.9,57,0.00,,,0.00,WUHU216HW,2013-08-19 22:15:00,
2013-08-19 17:20:00,83.2,66.3,29.95,SW,225,0.4,2.9,57,0.00,,,0.00,WUHU216HW,2013-08-19 22:20:00,
2013-08-19 17:25:00,83.3,66.5,29.94,SW,225,1.6,2.9,57,0.00,,,0.00,WUHU216HW,2013-08-19 22:25:00,
2013-08-19 17:30:00,83.5,67.1,29.94,SSW,203,1.6,1.6,58,0.00,,,0.00,WUHU216HW,2013-08-19 22:30:00,
2013-08-19 17:35:00,83.5,66.7,29.94,SW,225,1.1,2.5,57,0.00,,,0.00,WUHU216HW,2013-08-19 22:35:00,
2013-08-19 17:40:00,83.5,65.1,29.94,SW,225,2.5,4.5,54,0.00,,,0.00,WUHU216HW,2013-08-19 22:40:00,
2013-08-19 17:45:00,83.5,65.6,29.94,SW,216,1.9,4.5,55,0.00,,,0.00,WUHU216HW,2013-08-19 22:45:00,
2013-08-19 17:50:00,83.5,65.1,29.94,SW,225,1.5,2.5,54,0.00,,,0.00,WUHU216HW,2013-08-19 22:50:00,
2013-08-19 17:55:00,83.5,65.1,29.94,SSE,158,0.9,2.5,54,0.00,,,0.00,WUHU216HW,2013-08-19 22:55:00,
2013-08-19 18:00:00,83.3,64.9,29.94,SW,225,2.1,3.4,54,0.00,,,0.00,WUHU216HW,2013-08-19 23:00:00,
2013-08-19 18:05:00,83.3,65.4,29.94,SW,225,1.3,3.4,55,0.00,,,0.00,WUHU216HW,2013-08-19 23:05:00,
2013-08-19 18:10:00,83.3,65.4,29.93,West,270,0.4,2.5,55,0.00,,,0.00,WUHU216HW,2013-08-19 23:10:00,
2013-08-19 18:15:00,83.2,65.3,29.93,WSW,248,0.7,2.2,55,0.00,,,0.00,WUHU216HW,2013-08-19 23:15:00,
2013-08-19 18:20:00,82.8,64.4,29.93,SW,225,2.5,2.5,54,0.00,,,0.00,WUHU216HW,2013-08-19 23:20:00,
2013-08-19 18:25:00,82.6,64.7,29.93,WSW,248,1.1,2.9,55,0.00,,,0.00,WUHU216HW,2013-08-19 23:25:00,
2013-08-19 18:30:00,82.1,64.2,29.93,WSW,248,1.3,2.9,55,0.00,,,0.00,WUHU216HW,2013-08-19 23:30:00,
2013-08-19 18:35:00,81.9,64.1,29.93,WSW,248,2.2,2.2,55,0.00,,,0.00,WUHU216HW,2013-08-19 23:35:00,
2013-08-19 18:40:00,81.7,64.5,29.93,WSW,248,0.9,2.2,56,0.00,,,0.00,WUHU216HW,2013-08-19 23:40:00,
2013-08-19 18:45:00,81.5,64.8,29.93,West,264,1.4,2.2,57,0.00,,,0.00,WUHU216HW,2013-08-19 23:45:00,
2013-08-19 18:50:00,81.2,64.4,29.93,SW,225,1.5,2.2,57,0.00,,,0.00,WUHU216HW,2013-08-19 23:50:00,
2013-08-19 18:55:00,81.2,65.0,29.93,WSW,248,1.1,2.0,58,0.00,,,0.00,WUHU216HW,2013-08-19 23:55:00,
2013-08-19 19:00:00,81.2,65.5,29.93,WSW,248,0.2,1.3,59,0.00,,,0.00,WUHU216HW,2013-08-20 00:00:00,
2013-08-19 19:05:00,81.2,65.5,29.93,WSW,248,0.7,1.3,59,0.00,,,0.00,WUHU216HW,2013-08-20 00:05:00,
2013-08-19 19:10:00,81.0,65.9,29.93,WSW,248,0.0,1.1,60,0.00,,,0.00,WUHU216HW,2013-08-20 00:10:00,
2013-08-19 19:15:00,80.3,65.6,29.93,West,270,0.2,0.4,61,0.00,,,0.00,WUHU216HW,2013-08-20 00:15:00,
2013-08-19 19:20:00,79.9,65.8,29.93,West,270,0.0,0.4,62,0.00,,,0.00,WUHU216HW,2013-08-20 00:20:00,
2013-08-19 19:25:00,79.6,65.9,29.93,West,270,0.0,0.0,63,0.00,,,0.00,WUHU216HW,2013-08-20 00:25:00,
2013-08-19 19:30:00,79.0,65.8,29.93,West,270,0.0,0.0,64,0.00,,,0.00,WUHU216HW,2013-08-20 00:30:00,
2013-08-19 19:35:00,78.8,65.6,29.93,West,270,0.0,0.0,64,0.00,,,0.00,WUHU216HW,2013-08-20 00:35:00,
2013-08-19 19:40:00,78.3,65.5,29.93,West,270,0.0,0.0,65,0.00,,,0.00,WUHU216HW,2013-08-20 00:40:00,
2013-08-19 19:45:00,77.9,65.3,29.93,West,270,0.0,0.0,65,0.00,,,0.00,WUHU216HW,2013-08-20 00:45:00,
2013-08-19 19:50:00,77.6,65.4,29.93,West,270,0.0,0.0,66,0.00,,,0.00,WUHU216HW,2013-08-20 00:50:00,
2013-08-19 19:55:00,77.2,65.0,29.93,West,270,0.0,0.0,66,0.00,,,0.00,WUHU216HW,2013-08-20 00:55:00,
2013-08-19 20:00:00,76.7,64.9,29.93,SW,225,0.2,1.1,67,0.00,,,0.00,WUHU216HW,2013-08-20 01:00:00,
2013-08-19 20:05:00,76.3,64.5,29.93,SW,225,0.0,1.1,67,0.00,,,0.00,WUHU216HW,2013-08-20 01:05:00,
2013-08-19 20:10:00,76.0,64.2,29.93,SW,225,0.2,0.2,67,0.00,,,0.00,WUHU216HW,2013-08-20 01:10:00,
2013-08-19 20:15:00,75.8,64.4,29.93,SW,225,0.0,0.2,68,0.00,,,0.00,WUHU216HW,2013-08-20 01:15:00,
2013-08-19 20:20:00,75.6,64.7,29.93,SW,225,0.0,0.0,69,0.00,,,0.00,WUHU216HW,2013-08-20 01:20:00,
2013-08-19 20:25:00,75.2,64.4,29.93,SW,225,0.0,0.0,69,0.00,,,0.00,WUHU216HW,2013-08-20 01:25:00,
2013-08-19 20:30:00,75.2,64.8,29.93,SW,225,0.0,0.0,70,0.00,,,0.00,WUHU216HW,2013-08-20 01:30:00,
2013-08-19 20:35:00,75.1,64.6,29.93,SW,225,0.0,0.0,70,0.00,,,0.00,WUHU216HW,2013-08-20 01:35:00,
2013-08-19 20:40:00,74.9,64.9,29.93,SW,225,0.0,0.0,71,0.00,,,0.00,WUHU216HW,2013-08-20 01:40:00,
2013-08-19 20:45:00,74.5,64.5,29.93,SW,225,0.0,0.0,71,0.00,,,0.00,WUHU216HW,2013-08-20 01:45:00,
2013-08-19 20:50:00,74.5,64.5,29.94,SW,225,0.0,0.0,71,0.00,,,0.00,WUHU216HW,2013-08-20 01:50:00,
2013-08-19 20:55:00,74.2,64.6,29.93,SW,225,0.0,0.0,72,0.00,,,0.00,WUHU216HW,2013-08-20 01:55:00,
2013-08-19 21:00:00,74.0,64.5,29.94,SW,225,0.0,0.0,72,0.00,,,0.00,WUHU216HW,2013-08-20 02:00:00,
2013-08-19 21:05:00,73.8,64.6,29.94,SW,225,0.0,0.0,73,0.00,,,0.00,WUHU216HW,2013-08-20 02:05:00,
2013-08-19 21:10:00,73.6,64.4,29.94,SW,225,0.0,0.0,73,0.00,,,0.00,WUHU216HW,2013-08-20 02:10:00,
2013-08-19 21:15:00,73.4,64.7,29.94,SW,225,0.0,0.0,74,0.00,,,0.00,WUHU216HW,2013-08-20 02:15:00,
2013-08-19 21:20:00,73.4,64.7,29.95,SW,225,0.0,0.0,74,0.00,,,0.00,WUHU216HW,2013-08-20 02:20:00,
2013-08-19 21:25:00,73.3,64.9,29.95,SW,225,0.0,0.0,75,0.00,,,0.00,WUHU216HW,2013-08-20 02:25:00,
2013-08-19 21:30:00,73.3,64.9,29.95,SW,225,0.0,0.0,75,0.00,,,0.00,WUHU216HW,2013-08-20 02:30:00,
2013-08-19 21:35:00,73.3,64.9,29.95,SW,225,0.0,0.0,75,0.00,,,0.00,WUHU216HW,2013-08-20 02:35:00,
2013-08-19 21:40:00,73.1,64.7,29.96,SW,225,0.0,0.0,75,0.00,,,0.00,WUHU216HW,2013-08-20 02:40:00,
2013-08-19 21:45:00,73.1,64.7,29.96,SW,225,0.0,0.0,75,0.00,,,0.00,WUHU216HW,2013-08-20 02:45:00,
2013-08-19 21:50:00,72.9,64.5,29.96,SW,225,0.0,0.0,75,0.00,,,0.00,WUHU216HW,2013-08-20 02:50:00,
2013-08-19 21:55:00,72.7,64.7,29.96,SW,225,0.0,0.0,76,0.00,,,0.00,WUHU216HW,2013-08-20 02:55:00,
2013-08-19 22:00:00,72.7,64.7,29.96,SW,225,0.0,0.0,76,0.00,,,0.00,WUHU216HW,2013-08-20 03:00:00,
2013-08-19 22:05:00,72.5,64.5,29.96,SW,225,0.0,0.0,76,0.00,,,0.00,WUHU216HW,2013-08-20 03:05:00,
2013-08-19 22:10:00,72.5,64.5,29.96,SW,225,0.0,0.0,76,0.00,,,0.00,WUHU216HW,2013-08-20 03:10:00,
2013-08-19 22:15:00,72.4,64.7,29.96,SW,225,0.0,0.0,77,0.00,,,0.00,WUHU216HW,2013-08-20 03:15:00,
2013-08-19 22:20:00,72.2,64.2,29.96,SW,225,0.0,0.0,76,0.00,,,0.00,WUHU216HW,2013-08-20 03:20:00,
2013-08-19 22:25:00,72.0,64.4,29.96,SW,225,0.0,0.0,77,0.00,,,0.00,WUHU216HW,2013-08-20 03:25:00,
2013-08-19 22:30:00,71.8,64.2,29.97,SW,225,0.0,0.0,77,0.00,,,0.00,WUHU216HW,2013-08-20 03:30:00,
2013-08-19 22:35:00,71.8,64.2,29.97,SW,225,0.0,0.0,77,0.00,,,0.00,WUHU216HW,2013-08-20 03:35:00,
2013-08-19 22:40:00,71.6,64.0,29.97,SW,225,0.0,0.0,77,0.00,,,0.00,WUHU216HW,2013-08-20 03:40:00,
2013-08-19 22:45:00,71.6,64.0,29.97,SW,225,0.0,0.0,77,0.00,,,0.00,WUHU216HW,2013-08-20 03:45:00,
2013-08-19 22:50:00,71.5,64.3,29.97,SW,225,0.0,0.0,78,0.00,,,0.00,WUHU216HW,2013-08-20 03:50:00,
2013-08-19 22:55:00,71.3,64.1,29.97,SW,225,0.0,0.0,78,0.00,,,0.00,WUHU216HW,2013-08-20 03:55:00,
2013-08-19 23:00:00,71.1,63.9,29.97,SW,225,0.0,0.0,78,0.00,,,0.00,WUHU216HW,2013-08-20 04:00:00,
2013-08-19 23:01:00,71.1,63.9,29.97,SW,225,0.0,0.0,78,0.00,,,0.00,WUHU216HW,2013-08-20 04:01:00,
2013-08-19 23:06:00,70.9,63.7,29.97,SW,225,0.0,0.0,78,0.00,,,0.00,WUHU216HW,2013-08-20 04:06:00,
2013-08-19 23:11:00,70.7,63.9,29.97,SW,225,0.0,0.0,79,0.00,,,0.00,WUHU216HW,2013-08-20 04:11:00,
2013-08-19 23:16:00,70.6,63.7,29.97,SW,225,0.0,0.0,79,0.00,,,0.00,WUHU216HW,2013-08-20 04:16:00,
2013-08-19 23:21:00,70.6,63.7,29.97,SW,225,0.0,0.0,79,0.00,,,0.00,WUHU216HW,2013-08-20 04:21:00,
2013-08-19 23:26:00,70.2,63.7,29.97,SW,225,0.0,0.0,80,0.00,,,0.00,WUHU216HW,2013-08-20 04:26:00,
2013-08-19 23:31:00,70.2,63.7,29.97,SW,225,0.0,0.0,80,0.00,,,0.00,WUHU216HW,2013-08-20 04:31:00,
2013-08-19 23:36:00,70.0,63.5,29.97,SW,225,0.0,0.0,80,0.00,,,0.00,WUHU216HW,2013-08-20 04:36:00,
2013-08-19 23:41:00,69.8,63.4,29.97,SW,225,0.0,0.0,80,0.00,,,0.00,WUHU216HW,2013-08-20 04:41:00,
2013-08-19 23:46:00,69.8,63.7,29.97,SW,225,0.0,0.0,81,0.00,,,0.00,WUHU216HW,2013-08-20 04:46:00,
2013-08-19 23:51:00,69.7,63.6,29.97,SW,225,0.0,0.0,81,0.00,,,0.00,WUHU216HW,2013-08-20 04:51:00,
2013-08-19 23:56:00,69.7,63.6,29.97,SW,225,0.0,0.0,81,0.00,,,0.00,WUHU216HW,2013-08-20 04:56:00,